Time;durP1;ratioP1;P1;durP2;ratioP2;P2;SDS_P1;SDS_P2;PMS_P1;PMS_P2;Temp;Humidity;BMP_temperature;BMP_pressure;BME280_temperature;BME280_humidity;BME280_pressure;Samples;Min_cycle;Max_cycle;Signal;HPM_P1;HPM_P2
2023/08/17 00:01:31;;;;;;;7.43;2.40;;;;;;;18.97;82.20;101776.50;5264839;28;20411;-75
2023/08/17 00:04:02;;;;;;;6.50;2.40;;;;;;;18.91;82.10;101779.34;5265017;28;20032;-76
2023/08/17 00:06:34;;;;;;;11.03;3.93;;;;;;;18.89;82.92;101771.47;5264441;28;20036;-74
2023/08/17 00:09:06;;;;;;;4.00;2.60;;;;;;;18.93;82.90;101773.09;5230427;28;20364;-75
2023/08/17 00:11:37;;;;;;;4.68;2.65;;;;;;;18.81;83.50;101764.69;5246946;28;20025;-74
2023/08/17 00:14:10;;;;;;;6.03;2.50;;;;;;;18.76;84.04;101762.16;5264678;28;20039;-75
2023/08/17 00:16:41;;;;;;;;;;;;;;;18.94;81.58;101758.97;5264161;28;20040;-75
2023/08/17 00:19:12;;;;;;;4.65;2.10;;;;;;;18.76;83.59;101760.38;5264502;28;19917;-75
2023/08/17 00:21:45;;;;;;;9.07;3.17;;;;;;;18.74;83.54;101763.97;5264055;28;20051;-75
2023/08/17 00:24:16;;;;;;;;;;;;;;;18.89;81.83;101765.31;5264861;28;20029;-75
2023/08/17 00:26:48;;;;;;;4.50;2.13;;;;;;;18.68;83.40;101761.56;5264530;28;19912;-75
2023/08/17 00:29:19;;;;;;;10.43;2.37;;;;;;;18.56;84.43;101757.50;5264328;28;20080;-75
2023/08/17 00:31:52;;;;;;;8.30;2.67;;;;;;;18.70;83.59;101757.94;5264292;28;20083;-75
2023/08/17 00:34:23;;;;;;;5.35;2.40;;;;;;;18.49;84.98;101759.47;5264014;28;20124;-73
2023/08/17 00:36:55;;;;;;;7.70;2.93;;;;;;;18.49;85.30;101763.88;5264195;28;20474;-75
2023/08/17 00:39:26;;;;;;;6.43;2.47;;;;;;;18.44;85.46;101756.09;5264592;28;20055;-74
2023/08/17 00:41:58;;;;;;;7.73;3.03;;;;;;;18.47;85.53;101757.78;5265291;28;20092;-74
2023/08/17 00:44:29;;;;;;;9.17;2.57;;;;;;;18.34;85.55;101757.31;5265513;28;20260;-74
2023/08/17 00:47:01;;;;;;;9.17;2.60;;;;;;;18.25;85.79;101762.84;5254412;28;20090;-74
2023/08/17 00:49:35;;;;;;;5.30;2.45;;;;;;;18.36;85.64;101760.75;5274614;28;20033;-74
2023/08/17 00:52:06;;;;;;;7.70;2.92;;;;;;;18.22;86.32;101766.44;5270259;28;20364;-74
2023/08/17 00:54:38;;;;;;;4.47;2.23;;;;;;;18.44;85.58;101763.16;5264619;28;20029;-75
2023/08/17 00:57:10;;;;;;;6.63;2.63;;;;;;;18.33;85.83;101774.03;5264241;28;20060;-75
2023/08/17 00:59:41;;;;;;;4.83;2.40;;;;;;;18.39;84.84;101769.44;5263893;28;20059;-76
2023/08/17 01:02:13;;;;;;;8.23;2.73;;;;;;;18.23;84.72;101768.16;5264003;28;20671;-77
2023/08/17 01:04:45;;;;;;;7.93;2.45;;;;;;;18.21;84.56;101770.84;5264193;28;20041;-76
2023/08/17 01:07:16;;;;;;;5.30;2.07;;;;;;;18.19;84.72;101777.06;5263781;28;20468;-75
2023/08/17 01:09:48;;;;;;;6.20;2.27;;;;;;;18.36;84.47;101779.22;5263695;28;20104;-75
2023/08/17 01:12:24;;;;;;;6.50;2.55;;;;;;;18.27;84.83;101776.84;5263639;28;20420;-76
2023/08/17 01:15:07;;;;;;;4.20;2.40;;;;;;;18.13;84.82;101777.25;5263678;28;20029;-75
2023/08/17 01:17:49;;;;;;;8.35;3.22;;;;;;;18.13;85.62;101769.31;5263548;28;20053;-76
2023/08/17 01:20:23;;;;;;;4.55;2.10;;;;;;;18.21;84.81;101768.22;5264029;28;20021;-76
2023/08/17 01:22:58;;;;;;;6.70;2.60;;;;;;;18.02;85.79;101767.88;5263265;28;20108;-74
2023/08/17 01:25:30;;;;;;;4.13;2.10;;;;;;;18.06;85.91;101766.00;5263605;28;20033;-76
2023/08/17 01:28:04;;;;;;;6.63;2.57;;;;;;;18.06;86.04;101762.50;5244744;28;20482;-75
2023/08/17 01:30:54;;;;;;;6.25;2.42;;;;;;;17.98;86.39;101763.59;5263416;28;20017;-74
2023/08/17 01:33:40;;;;;;;4.70;2.13;;;;;;;18.04;86.61;101768.69;5263353;28;20024;-76
2023/08/17 01:36:31;;;;;;;6.13;2.95;;;;;;;17.96;86.40;101762.75;5263130;28;20031;-75
2023/08/17 01:39:04;;;;;;;8.27;3.10;;;;;;;17.94;87.24;101758.44;5263272;28;20464;-75
2023/08/17 01:41:38;;;;;;;7.63;2.80;;;;;;;17.92;87.59;101750.59;5245339;28;20025;-75
2023/08/17 01:44:10;;;;;;;6.97;2.83;;;;;;;17.88;87.35;101754.19;5263170;28;20078;-75
2023/08/17 01:46:42;;;;;;;8.65;3.58;;;;;;;17.90;87.94;101751.53;5262747;28;20115;-76
2023/08/17 01:49:13;;;;;;;6.10;2.85;;;;;;;17.87;88.05;101749.81;5263305;28;20163;-75
2023/08/17 01:51:45;;;;;;;7.37;3.03;;;;;;;17.83;88.03;101746.38;5244652;28;20516;-74
2023/08/17 01:54:16;;;;;;;5.97;2.33;;;;;;;17.92;88.16;101745.31;5262825;28;20032;-74
2023/08/17 01:56:47;;;;;;;8.27;2.70;;;;;;;17.77;88.63;101745.69;5262579;28;20029;-74
2023/08/17 01:59:19;;;;;;;5.27;2.67;;;;;;;17.79;89.26;101739.47;5228319;28;20047;-74
2023/08/17 02:01:50;;;;;;;8.57;3.03;;;;;;;17.77;89.65;101737.78;5244638;28;20021;-74
2023/08/17 02:04:21;;;;;;;7.80;3.17;;;;;;;17.74;89.16;101744.00;5262945;28;20036;-75
2023/08/17 02:06:53;;;;;;;5.50;3.30;;;;;;;17.78;89.35;101743.00;5262668;28;20025;-74
2023/08/17 02:09:24;;;;;;;8.37;3.00;;;;;;;17.74;89.72;101740.50;5262435;28;20078;-74
2023/08/17 02:11:55;;;;;;;6.23;3.03;;;;;;;17.72;89.35;101751.09;5262705;28;20063;-75
2023/08/17 02:14:27;;;;;;;5.80;2.60;;;;;;;17.70;89.76;101752.91;5244873;28;20032;-74
2023/08/17 02:16:58;;;;;;;4.37;2.80;;;;;;;17.71;90.02;101749.38;5262316;28;20107;-74
2023/08/17 02:19:29;;;;;;;7.03;2.80;;;;;;;17.68;89.67;101758.22;5262890;28;20082;-74
2023/08/17 02:22:01;;;;;;;5.43;3.10;;;;;;;17.64;90.43;101755.69;5262116;28;20108;-74
2023/08/17 02:24:32;;;;;;;8.65;3.13;;;;;;;17.71;90.20;101754.66;5244594;28;20025;-74
2023/08/17 02:27:04;;;;;;;13.30;2.70;;;;;;;17.64;90.35;101753.06;5262177;28;20033;-74
2023/08/17 02:29:36;;;;;;;5.50;3.00;;;;;;;17.62;90.33;101754.88;5262527;28;20028;-74
2023/08/17 02:32:07;;;;;;;7.40;2.83;;;;;;;17.63;89.57;101762.75;5262463;28;20727;-74
2023/08/17 02:34:39;;;;;;;7.23;3.37;;;;;;;17.64;89.13;101750.44;5262447;28;20540;-74
2023/08/17 02:37:10;;;;;;;4.47;2.60;;;;;;;17.54;88.95;101751.59;5262369;28;20025;-75
2023/08/17 02:39:42;;;;;;;4.07;2.50;;;;;;;17.64;88.84;101753.91;5263612;28;20174;-75
2023/08/17 02:42:13;;;;;;;7.72;2.78;;;;;;;17.57;89.23;101747.09;5266566;28;20017;-75
2023/08/17 02:44:45;;;;;;;10.50;3.37;;;;;;;17.67;88.35;101751.19;5266113;28;20029;-74
2023/08/17 02:47:16;;;;;;;10.27;3.57;;;;;;;17.62;88.77;101742.56;5266363;28;20036;-75
2023/08/17 02:49:49;;;;;;;7.87;2.40;;;;;;;17.65;87.64;101745.13;5248404;28;20029;-75
2023/08/17 02:52:20;;;;;;;6.18;2.50;;;;;;;17.61;88.28;101742.59;5266039;28;20466;-74
2023/08/17 02:54:52;;;;;;;7.17;2.60;;;;;;;17.66;87.20;101744.22;5266134;28;20064;-74
2023/08/17 02:57:23;;;;;;;8.07;3.23;;;;;;;17.62;87.31;101741.69;5265795;28;20047;-74
2023/08/17 02:59:55;;;;;;;7.85;2.63;;;;;;;17.61;86.93;101739.97;5248212;28;20033;-74
2023/08/17 03:02:26;;;;;;;9.63;2.97;;;;;;;17.69;86.86;101735.34;5265828;28;20032;-75
2023/08/17 03:04:58;;;;;;;6.87;2.47;;;;;;;17.65;86.53;101728.44;5266049;28;20372;-75
2023/08/17 03:07:29;;;;;;;4.50;2.30;;;;;;;17.73;87.09;101737.00;5266044;28;20063;-75
2023/08/17 03:10:00;;;;;;;5.10;2.27;;;;;;;17.65;87.22;101738.97;5265982;28;20060;-74
2023/08/17 03:12:32;;;;;;;5.70;2.63;;;;;;;17.67;87.66;101732.75;5265596;28;20104;-74
2023/08/17 03:15:05;;;;;;;6.30;2.70;;;;;;;17.62;87.02;101736.44;5265750;28;20029;-75
2023/08/17 03:17:37;;;;;;;6.85;2.53;;;;;;;17.61;86.90;101730.31;5266044;28;20464;-75
2023/08/17 03:20:08;;;;;;;10.90;3.13;;;;;;;17.71;87.36;101737.94;5265666;28;20025;-75
2023/08/17 03:22:40;;;;;;;5.70;2.40;;;;;;;17.59;86.87;101731.25;5264858;28;20079;-74
2023/08/17 03:25:11;;;;;;;6.23;3.07;;;;;;;17.56;86.59;101739.22;5265255;28;20037;-74
2023/08/17 03:27:42;;;;;;;7.73;3.43;;;;;;;17.55;86.08;101733.09;5265468;28;20350;-74
2023/08/17 03:30:14;;;;;;;7.80;2.60;;;;;;;17.52;86.05;101732.28;5265813;28;20044;-75
2023/08/17 03:32:45;;;;;;;5.70;2.83;;;;;;;17.45;86.01;101735.13;5265144;28;20032;-75
2023/08/17 03:35:17;;;;;;;6.93;3.47;;;;;;;17.42;85.95;101745.75;5265375;28;20116;-74
2023/08/17 03:37:48;;;;;;;7.80;2.67;;;;;;;17.42;86.31;101736.94;5266221;28;20111;-75
2023/08/17 03:40:19;;;;;;;5.53;2.50;;;;;;;17.40;86.70;101736.13;5266034;28;20049;-75
2023/08/17 03:42:51;;;;;;;7.77;2.50;;;;;;;17.46;87.18;101738.59;5265195;28;20040;-75
2023/08/17 03:45:22;;;;;;;6.17;2.60;;;;;;;17.36;87.26;101730.09;5265189;28;20052;-75
2023/08/17 03:47:53;;;;;;;6.43;2.07;;;;;;;17.34;87.41;101733.66;5265775;28;20103;-75
2023/08/17 03:50:27;;;;;;;5.07;2.50;;;;;;;17.31;86.89;101734.59;5265137;28;20033;-75
2023/08/17 03:52:59;;;;;;;7.95;2.60;;;;;;;17.32;87.06;101733.69;5264814;28;20021;-74
2023/08/17 03:55:30;;;;;;;7.30;2.43;;;;;;;17.37;87.22;101737.09;5269660;28;20029;-74
2023/08/17 03:58:02;;;;;;;8.70;2.73;;;;;;;17.29;88.34;101749.56;5271302;28;20131;-75
2023/08/17 04:00:33;;;;;;;8.37;3.43;;;;;;;17.24;88.59;101739.19;5269833;28;20116;-75
2023/08/17 04:03:04;;;;;;;5.90;2.60;;;;;;;17.23;88.86;101744.47;5267316;28;20060;-74
2023/08/17 04:05:36;;;;;;;8.07;3.00;;;;;;;17.13;89.48;101754.38;5266282;28;20120;-74
2023/08/17 04:08:08;;;;;;;4.37;2.30;;;;;;;17.11;89.49;101754.44;5266739;28;20124;-74
2023/08/17 04:10:39;;;;;;;8.45;3.05;;;;;;;17.07;89.88;101754.53;5266471;28;20495;-74
2023/08/17 04:13:11;;;;;;;7.83;2.80;;;;;;;17.04;90.40;101755.47;5266492;28;20024;-75
2023/08/17 04:15:42;;;;;;;6.57;2.20;;;;;;;16.99;90.88;101764.41;5266215;28;20488;-75
2023/08/17 04:18:13;;;;;;;4.97;2.30;;;;;;;16.91;91.00;101760.16;5248098;28;20060;-73
2023/08/17 04:20:45;;;;;;;5.93;2.57;;;;;;;16.85;91.61;101765.56;5264979;28;20075;-74
2023/08/17 04:23:16;;;;;;;7.27;2.83;;;;;;;16.85;91.88;101768.19;5264357;28;20090;-74
2023/08/17 04:25:48;;;;;;;8.97;3.33;;;;;;;16.75;92.30;101769.28;5264676;28;20033;-73
2023/08/17 04:28:19;;;;;;;4.57;2.80;;;;;;;16.65;92.69;101766.00;5264416;28;20036;-74
2023/08/17 04:30:50;;;;;;;5.93;2.70;;;;;;;16.81;92.91;101768.25;5264034;28;20759;-74
2023/08/17 04:33:22;;;;;;;5.93;3.13;;;;;;;16.68;93.64;101771.19;5264089;28;20071;-74
2023/08/17 04:35:53;;;;;;;7.43;3.20;;;;;;;16.63;93.42;101772.19;5264034;28;20032;-73
2023/08/17 04:38:25;;;;;;;9.00;3.30;;;;;;;16.57;94.31;101775.84;5246382;28;20049;-74
2023/08/17 04:40:56;;;;;;;5.45;2.88;;;;;;;16.53;94.29;101774.16;5270193;28;20068;-75
2023/08/17 04:43:28;;;;;;;5.47;2.70;;;;;;;16.55;94.25;101772.34;5284394;28;20043;-75
2023/08/17 04:45:59;;;;;;;8.10;3.00;;;;;;;16.71;94.09;101767.63;5265640;28;20394;-74
2023/08/17 04:48:30;;;;;;;7.43;2.83;;;;;;;16.56;94.29;101768.84;5284927;28;20063;-75
2023/08/17 04:51:02;;;;;;;6.97;2.73;;;;;;;16.69;94.36;101770.28;5284642;28;20111;-74
2023/08/17 04:53:34;;;;;;;5.53;2.87;;;;;;;16.61;94.43;101768.72;5283963;28;20024;-74
2023/08/17 04:56:05;;;;;;;4.97;2.60;;;;;;;16.65;94.37;101766.00;5250049;28;20051;-74
2023/08/17 04:58:36;;;;;;;9.03;3.03;;;;;;;16.65;94.17;101758.09;5284519;28;20127;-74
2023/08/17 05:01:08;;;;;;;7.83;3.20;;;;;;;16.68;93.22;101760.66;5284494;28;20028;-74
2023/08/17 05:03:40;;;;;;;6.07;2.80;;;;;;;16.66;93.60;101770.34;5283903;28;20484;-75
2023/08/17 05:06:11;;;;;;;6.72;2.80;;;;;;;16.60;93.05;101773.16;5284324;28;20063;-74
2023/08/17 05:08:43;;;;;;;9.43;3.23;;;;;;;16.59;93.17;101764.34;5284220;28;20115;-74
2023/08/17 05:11:14;;;;;;;8.90;2.57;;;;;;;16.58;93.02;101762.66;5284127;28;20032;-75
2023/08/17 05:13:45;;;;;;;6.60;2.97;;;;;;;16.58;93.47;101761.75;5284396;28;20484;-75
2023/08/17 05:16:17;;;;;;;6.67;3.20;;;;;;;16.61;93.20;101764.31;5284490;28;20029;-75
2023/08/17 05:18:48;;;;;;;8.27;3.40;;;;;;;16.64;93.28;101766.03;5266416;28;20037;-74
2023/08/17 05:21:19;;;;;;;8.57;2.70;;;;;;;16.76;93.25;101765.75;5265989;28;20024;-75
2023/08/17 05:23:51;;;;;;;10.47;3.17;;;;;;;16.69;92.97;101764.16;5283670;28;20032;-75
2023/08/17 05:26:22;;;;;;;3.83;2.03;;;;;;;16.75;93.06;101758.75;5265990;28;20404;-76
2023/08/17 05:28:54;;;;;;;5.67;3.47;;;;;;;16.94;92.84;101769.75;5283709;28;20028;-75
2023/08/17 05:31:25;;;;;;;6.33;3.37;;;;;;;16.98;92.10;101765.28;5283984;28;20064;-74
2023/08/17 05:33:56;;;;;;;7.87;2.87;;;;;;;16.98;91.44;101763.50;5288747;28;20414;-75
2023/08/17 05:36:28;;;;;;;5.00;2.90;;;;;;;17.20;90.34;101765.63;5290388;28;20032;-74
2023/08/17 05:38:59;;;;;;;8.73;3.47;;;;;;;17.11;90.90;101761.44;5291134;28;20056;-74
2023/08/17 05:41:30;;;;;;;4.60;2.80;;;;;;;17.19;91.30;101767.38;5266236;28;20051;-75
2023/08/17 05:44:02;;;;;;;6.93;2.73;;;;;;;17.23;90.34;101770.84;5265995;28;20029;-75
2023/08/17 05:46:34;;;;;;;8.27;3.40;;;;;;;17.20;90.06;101770.91;5265745;28;20380;-76
2023/08/17 05:49:05;;;;;;;6.38;2.78;;;;;;;17.21;89.88;101775.25;5265846;28;20038;-74
2023/08/17 05:51:36;;;;;;;5.47;2.87;;;;;;;17.35;90.19;101774.91;5265593;28;20036;-75
2023/08/17 05:54:08;;;;;;;6.73;3.50;;;;;;;17.26;89.92;101771.63;5283751;28;20029;-74
2023/08/17 05:56:44;;;;;;;6.73;3.07;;;;;;;17.51;90.08;101770.97;5283557;28;20094;-75
2023/08/17 05:59:15;;;;;;;5.57;2.80;;;;;;;17.44;89.74;101770.28;5283614;28;20451;-75
2023/08/17 06:01:47;;;;;;;9.50;3.43;;;;;;;17.46;88.86;101781.63;5283644;28;20060;-75
2023/08/17 06:04:19;;;;;;;10.00;3.57;;;;;;;17.66;87.82;101778.50;5283272;28;20024;-75
2023/08/17 06:06:50;;;;;;;;;;;;;;;17.89;87.49;101777.03;5283442;28;20068;-75
2023/08/17 06:09:22;;;;;;;7.18;3.13;;;;;;;17.59;88.60;101782.19;5283640;28;19959;-75
2023/08/17 06:11:53;;;;;;;6.37;3.37;;;;;;;17.60;88.74;101783.06;5283477;28;20115;-75
2023/08/17 06:14:25;;;;;;;9.23;3.30;;;;;;;17.54;88.60;101788.50;5266111;28;20032;-75
2023/08/17 06:16:56;;;;;;;8.07;3.20;;;;;;;17.78;88.99;101789.63;5269734;28;20464;-75
2023/08/17 06:19:27;;;;;;;6.90;3.00;;;;;;;17.75;88.99;101787.91;5287798;28;20056;-75
2023/08/17 06:21:59;;;;;;;6.10;3.13;;;;;;;17.74;88.83;101790.59;5269402;28;20064;-74
2023/08/17 06:24:30;;;;;;;6.00;3.40;;;;;;;17.91;89.32;101780.50;5287324;28;20040;-75
2023/08/17 06:27:02;;;;;;;8.77;3.63;;;;;;;18.05;88.33;101782.75;5287543;28;20111;-75
2023/08/17 06:29:33;;;;;;;7.73;4.07;;;;;;;17.84;87.81;101782.41;5269508;28;20033;-75
2023/08/17 06:32:05;;;;;;;7.73;3.80;;;;;;;17.78;88.91;101790.47;5287418;28;20033;-75
2023/08/17 06:34:36;;;;;;;9.93;3.80;;;;;;;17.81;89.19;101774.56;5286997;28;20106;-73
2023/08/17 06:37:07;;;;;;;8.23;3.27;;;;;;;17.78;89.39;101781.72;5287145;28;20298;-74
2023/08/17 06:39:39;;;;;;;6.73;3.20;;;;;;;17.88;89.63;101779.72;5287215;28;20110;-75
2023/08/17 06:42:10;;;;;;;8.47;3.50;;;;;;;17.83;88.83;101787.72;5286919;28;20369;-76
2023/08/17 06:44:41;;;;;;;8.27;3.63;;;;;;;17.90;88.63;101783.16;5286956;28;20538;-74
2023/08/17 06:47:13;;;;;;;9.00;3.50;;;;;;;17.96;88.26;101788.28;5287111;28;20111;-75
2023/08/17 06:49:44;;;;;;;10.10;3.30;;;;;;;17.99;88.54;101793.47;5287006;28;20024;-76
2023/08/17 06:52:16;;;;;;;6.73;3.53;;;;;;;18.25;87.48;101790.09;5286292;28;20039;-75
2023/08/17 06:54:47;;;;;;;7.03;4.13;;;;;;;18.52;87.35;101792.84;5286516;28;20033;-76
2023/08/17 06:57:18;;;;;;;6.60;3.33;;;;;;;18.52;85.91;101793.69;5287016;28;20130;-75
2023/08/17 06:59:50;;;;;;;10.77;4.10;;;;;;;18.48;85.25;101796.47;5286514;28;20071;-74
2023/08/17 07:02:21;;;;;;;9.83;3.50;;;;;;;18.64;85.37;101789.81;5286520;28;20033;-74
2023/08/17 07:04:53;;;;;;;6.10;3.20;;;;;;;18.74;85.19;101795.66;5286702;28;20096;-74
2023/08/17 07:07:24;;;;;;;7.70;3.53;;;;;;;18.72;85.27;101793.09;5286423;28;20025;-74
2023/08/17 07:09:56;;;;;;;7.47;3.13;;;;;;;18.73;84.96;101788.69;5286365;28;20032;-75
2023/08/17 07:12:28;;;;;;;6.95;3.92;;;;;;;18.93;84.39;101791.59;5286557;28;20358;-75
2023/08/17 07:14:59;;;;;;;10.30;3.50;;;;;;;19.12;84.38;101796.28;5286442;28;20123;-75
2023/08/17 07:17:31;;;;;;;7.23;3.10;;;;;;;19.13;82.47;101800.66;5286834;28;20028;-74
2023/08/17 07:20:03;;;;;;;9.17;3.80;;;;;;;19.21;82.91;101792.50;5286486;28;20078;-75
2023/08/17 07:22:35;;;;;;;;;;;;;;;19.57;82.26;101793.00;5286431;28;20427;-75
2023/08/17 07:25:08;;;;;;;9.55;3.72;;;;;;;18.99;81.84;101790.53;5286694;28;20000;-75
2023/08/17 07:27:41;;;;;;;9.20;3.38;;;;;;;18.93;82.92;101796.88;5286205;28;20123;-75
2023/08/17 07:30:13;;;;;;;8.73;3.33;;;;;;;18.81;82.59;101797.22;5286113;28;20044;-76
2023/08/17 07:32:44;;;;;;;6.53;3.40;;;;;;;19.10;83.27;101801.59;5286172;28;20082;-76
2023/08/17 07:35:15;;;;;;;7.70;3.17;;;;;;;19.23;82.78;101799.44;5285855;28;20416;-75
2023/08/17 07:37:47;;;;;;;9.43;4.17;;;;;;;19.12;80.48;101797.13;5285977;28;20425;-75
2023/08/17 07:40:18;;;;;;;5.83;3.30;;;;;;;19.30;81.70;101806.25;5298453;28;20084;-74
2023/08/17 07:42:50;;;;;;;11.83;4.30;;;;;;;19.32;82.38;101798.28;5307146;28;20399;-75
2023/08/17 07:45:21;;;;;;;9.97;4.07;;;;;;;19.34;81.06;101796.44;5305994;28;20380;-75
2023/08/17 07:47:52;;;;;;;7.00;3.17;;;;;;;19.49;80.16;101797.69;5305687;28;20471;-75
2023/08/17 07:50:24;;;;;;;8.10;3.53;;;;;;;19.54;79.11;101797.53;5306900;28;20112;-75
2023/08/17 07:52:55;;;;;;;10.47;3.60;;;;;;;19.61;79.01;101799.03;5306507;28;20058;-75
2023/08/17 07:55:27;;;;;;;9.97;3.07;;;;;;;19.48;78.73;101806.53;5306771;28;20115;-75
2023/08/17 07:57:58;;;;;;;9.33;4.23;;;;;;;19.84;79.36;101808.88;5305749;28;20434;-75
2023/08/17 08:00:29;;;;;;;7.10;3.40;;;;;;;19.86;77.75;101809.69;5306691;28;20376;-75
2023/08/17 08:03:01;;;;;;;7.43;3.27;;;;;;;19.94;77.15;101812.06;5306395;28;20480;-75
2023/08/17 08:05:32;;;;;;;8.33;3.43;;;;;;;20.01;76.88;101806.50;5306793;28;20074;-75
2023/08/17 08:08:04;;;;;;;6.90;3.77;;;;;;;19.99;77.81;101797.72;5306693;28;20060;-74
2023/08/17 08:10:35;;;;;;;10.85;3.35;;;;;;;20.16;77.32;101805.06;5306332;28;20063;-75
2023/08/17 08:13:07;;;;;;;8.90;4.00;;;;;;;20.24;75.85;101804.78;5306597;28;20032;-75
2023/08/17 08:15:38;;;;;;;7.33;3.43;;;;;;;20.57;74.57;101805.28;5306160;28;20054;-75
2023/08/17 08:18:09;;;;;;;6.93;3.30;;;;;;;20.63;73.79;101801.53;5306457;28;20044;-74
2023/08/17 08:20:41;;;;;;;8.17;3.10;;;;;;;20.32;74.83;101794.78;5306695;28;20055;-75
2023/08/17 08:23:12;;;;;;;8.63;3.40;;;;;;;20.45;75.40;101803.13;5306263;28;20024;-75
2023/08/17 08:25:44;;;;;;;6.83;3.70;;;;;;;20.44;74.87;101804.03;5305083;28;20085;-75
2023/08/17 08:28:15;;;;;;;7.32;3.22;;;;;;;20.36;74.08;101801.66;5306269;28;20059;-75
2023/08/17 08:30:47;;;;;;;5.43;3.47;;;;;;;20.39;74.34;101809.50;5306190;28;20051;-75
2023/08/17 08:33:18;;;;;;;8.90;3.47;;;;;;;20.17;74.98;101812.09;5306184;28;20024;-75
2023/08/17 08:35:49;;;;;;;8.30;3.80;;;;;;;20.06;75.25;101810.75;5306029;28;20118;-75
2023/08/17 08:38:21;;;;;;;7.00;3.10;;;;;;;19.94;76.69;101815.56;5305528;28;20422;-74
2023/08/17 08:40:52;;;;;;;8.73;3.50;;;;;;;19.81;76.88;101819.56;5286099;28;20053;-76
2023/08/17 08:43:24;;;;;;;9.35;3.50;;;;;;;19.68;78.17;101812.00;5267164;28;20033;-75
2023/08/17 08:45:58;;;;;;;9.37;3.43;;;;;;;19.72;78.49;101807.47;5267043;28;20041;-76
2023/08/17 08:48:31;;;;;;;6.10;3.20;;;;;;;19.50;80.21;101812.66;5284727;28;20025;-74
2023/08/17 08:51:07;;;;;;;6.75;3.53;;;;;;;19.36;80.40;101802.53;5284640;28;20024;-75
2023/08/17 08:53:45;;;;;;;12.80;3.58;;;;;;;19.45;81.69;101804.03;5284042;28;20456;-75
2023/08/17 08:56:21;;;;;;;6.03;3.38;;;;;;;19.57;80.96;101798.28;5284326;28;20476;-76
2023/08/17 08:58:52;;;;;;;8.75;3.67;;;;;;;19.67;79.21;101796.19;5284547;28;20028;-74
2023/08/17 09:01:24;;;;;;;7.07;3.73;;;;;;;19.47;79.75;101794.25;5284482;28;20031;-74
2023/08/17 09:03:58;;;;;;;9.13;3.80;;;;;;;19.63;79.64;101794.59;5284314;28;20060;-75
2023/08/17 09:06:30;;;;;;;7.90;3.72;;;;;;;19.86;79.26;101788.50;5284198;28;20098;-76
2023/08/17 09:09:02;;;;;;;8.00;3.83;;;;;;;19.90;78.92;101791.91;5284342;28;20361;-76
2023/08/17 09:11:33;;;;;;;8.25;3.72;;;;;;;19.92;78.66;101780.34;5284386;28;20032;-76
2023/08/17 09:14:07;;;;;;;8.13;4.07;;;;;;;20.17;78.38;101788.28;5284882;28;20036;-76
2023/08/17 09:16:39;;;;;;;6.78;3.97;;;;;;;20.01;76.93;101782.69;5284959;28;20422;-75
2023/08/17 09:19:10;;;;;;;8.23;4.17;;;;;;;19.98;78.46;101779.25;5285049;28;20067;-75
2023/08/17 09:21:42;;;;;;;14.07;4.70;;;;;;;19.66;79.80;101789.19;5285226;28;20086;-75
2023/08/17 09:24:13;;;;;;;9.17;4.13;;;;;;;19.60;78.39;101787.63;5290692;28;20028;-76
2023/08/17 09:26:44;;;;;;;8.20;4.13;;;;;;;19.65;79.70;101798.88;5298504;28;20490;-75
2023/08/17 09:29:18;;;;;;;11.27;5.33;;;;;;;19.43;80.09;101788.22;5290707;28;20033;-74
2023/08/17 09:31:49;;;;;;;13.68;6.28;;;;;;;19.38;80.22;101791.91;5297900;28;20040;-75
2023/08/17 09:34:21;;;;;;;10.70;5.10;;;;;;;19.30;80.38;101784.22;5278774;28;20036;-76
2023/08/17 09:36:52;;;;;;;13.47;4.93;;;;;;;19.39;80.88;101783.94;5294651;28;20035;-74
2023/08/17 09:39:24;;;;;;;8.17;5.20;;;;;;;19.39;81.21;101786.56;5277775;28;20056;-76
2023/08/17 09:41:56;;;;;;;12.60;5.32;;;;;;;19.56;80.52;101780.72;5303687;28;20028;-76
2023/08/17 09:44:27;;;;;;;16.37;6.57;;;;;;;19.90;80.50;101786.59;5303522;28;20028;-75
2023/08/17 09:46:59;;;;;;;12.77;5.80;;;;;;;20.29;78.10;101778.16;5305002;28;20422;-75
2023/08/17 09:49:32;;;;;;;15.50;5.57;;;;;;;20.05;77.56;101791.34;5303778;28;20110;-76
2023/08/17 09:52:04;;;;;;;9.93;6.07;;;;;;;20.14;77.63;101785.72;5304458;28;20113;-75
2023/08/17 09:54:36;;;;;;;11.35;6.50;;;;;;;20.11;77.39;101784.97;5305156;28;20063;-74
2023/08/17 09:57:08;;;;;;;14.02;6.15;;;;;;;20.13;78.44;101784.00;5304426;28;20031;-76
2023/08/17 09:59:40;;;;;;;17.60;6.68;;;;;;;19.99;76.86;101787.13;5304797;28;20475;-76
2023/08/17 10:02:19;;;;;;;13.25;6.20;;;;;;;20.15;78.88;101773.34;5304719;28;20069;-76
2023/08/17 10:04:58;;;;;;;16.00;7.72;;;;;;;19.91;78.75;101775.97;5303678;28;20135;-74
2023/08/17 10:07:31;;;;;;;12.25;7.00;;;;;;;19.92;79.86;101777.72;5304900;28;20028;-75
2023/08/17 10:10:04;;;;;;;12.80;6.75;;;;;;;20.04;79.12;101769.34;5305017;28;20389;-76
2023/08/17 10:12:38;;;;;;;15.75;7.28;;;;;;;19.93;78.75;101762.69;5305031;28;20032;-75
2023/08/17 10:15:12;;;;;;;11.63;7.10;;;;;;;20.06;78.92;101758.69;5305025;28;20115;-76
2023/08/17 10:17:54;;;;;;;15.32;8.02;;;;;;;20.01;79.15;101761.50;5305981;28;20032;-76
2023/08/17 10:20:29;;;;;;;13.63;7.93;;;;;;;20.20;78.14;101764.31;5310623;28;20082;-76
2023/08/17 10:23:22;;;;;;;11.82;7.00;;;;;;;20.14;78.87;101763.69;5314816;28;20287;-75
2023/08/17 10:25:53;;;;;;;13.25;7.20;;;;;;;20.12;79.07;101763.72;5319144;28;20116;-76
2023/08/17 10:28:25;;;;;;;12.93;7.05;;;;;;;20.11;78.59;101764.66;5319789;28;20032;-76
2023/08/17 10:30:57;;;;;;;11.25;6.90;;;;;;;20.23;79.46;101758.91;5314779;28;20081;-75
2023/08/17 10:33:29;;;;;;;11.73;6.32;;;;;;;20.35;78.68;101757.59;5311430;28;20535;-76
2023/08/17 10:36:01;;;;;;;11.00;7.03;;;;;;;20.08;77.91;101756.84;5307645;28;20122;-75
2023/08/17 10:38:33;;;;;;;12.45;7.47;;;;;;;20.21;79.55;101750.16;5307744;28;20039;-76
2023/08/17 10:41:12;;;;;;;11.30;6.63;;;;;;;20.17;78.38;101760.91;5288400;28;20044;-75
2023/08/17 10:43:59;;;;;;;10.45;6.13;;;;;;;20.15;78.78;101758.31;5287131;28;20020;-75
2023/08/17 10:46:37;;;;;;;9.75;6.60;;;;;;;20.32;78.43;101763.00;5289482;28;20544;-75
2023/08/17 10:49:24;;;;;;;11.30;6.80;;;;;;;20.45;78.66;101766.03;5271686;28;20021;-75
2023/08/17 10:52:07;;;;;;;14.13;6.80;;;;;;;20.29;77.96;101762.25;5288135;28;20061;-74
2023/08/17 10:54:40;;;;;;;12.95;6.63;;;;;;;20.28;78.72;101752.56;5287817;28;20379;-74
2023/08/17 10:57:32;;;;;;;11.23;6.97;;;;;;;20.53;78.88;101761.31;5285718;28;20476;-76
2023/08/17 11:00:31;;;;;;;13.75;7.20;;;;;;;20.83;79.11;101761.03;5284447;28;20041;-75
2023/08/17 11:03:11;;;;;;;12.85;7.97;;;;;;;20.79;76.97;101754.13;5270486;28;20384;-75
2023/08/17 11:05:49;;;;;;;11.98;7.88;;;;;;;20.60;77.40;101748.66;5270827;28;20059;-75
2023/08/17 11:08:28;;;;;;;10.85;8.07;;;;;;;20.86;76.44;101755.59;5286839;28;20025;-75
2023/08/17 11:11:04;;;;;;;15.02;7.75;;;;;;;20.91;75.91;101760.72;5286399;28;20051;-76
2023/08/17 11:13:41;;;;;;;14.60;7.97;;;;;;;21.20;75.86;101767.47;5286621;28;20063;-75
2023/08/17 11:16:14;;;;;;;15.95;8.77;;;;;;;21.39;75.70;101762.25;5286519;28;20032;-75
2023/08/17 11:18:47;;;;;;;12.20;7.43;;;;;;;21.17;74.85;101766.72;5286288;28;20082;-75
2023/08/17 11:21:19;;;;;;;12.82;6.75;;;;;;;21.34;74.94;101766.88;5286382;28;20503;-75
2023/08/17 11:23:51;;;;;;;15.75;7.20;;;;;;;21.49;76.29;101760.09;5268231;28;20361;-75
2023/08/17 11:26:23;;;;;;;12.27;7.63;;;;;;;20.95;75.68;101767.63;5286077;28;20094;-75
2023/08/17 11:28:54;;;;;;;16.13;8.95;;;;;;;20.63;76.76;101761.81;5268403;28;20100;-75
2023/08/17 11:31:26;;;;;;;12.57;7.50;;;;;;;20.77;77.75;101775.41;5268199;28;20044;-76
2023/08/17 11:33:58;;;;;;;11.93;7.60;;;;;;;20.61;77.92;101773.38;5268375;28;20391;-75
2023/08/17 11:36:29;;;;;;;12.10;8.15;;;;;;;20.77;78.24;101764.81;5286251;28;20416;-75
2023/08/17 11:39:01;;;;;;;12.30;7.27;;;;;;;21.06;78.61;101775.16;5267907;28;20075;-75
2023/08/17 11:41:32;;;;;;;13.17;8.33;;;;;;;20.98;76.35;101767.50;5268242;28;20052;-75
2023/08/17 11:44:04;;;;;;;13.67;7.43;;;;;;;21.42;77.04;101764.78;5285741;28;20037;-75
2023/08/17 11:46:36;;;;;;;13.57;8.88;;;;;;;21.03;75.31;101770.84;5285926;28;20669;-74
2023/08/17 11:49:07;;;;;;;12.97;7.90;;;;;;;21.10;75.98;101772.28;5285842;28;20028;-75